sensor_id;sensor_type;location;lat;lon;timestamp;pressure;altitude;pressure_sealevel;temperature;humidity
78016;BME280;67223;51.102;5.882;2023-04-30T00:01:25;102114.81;;;9.58;74.19
78016;BME280;67223;51.102;5.882;2023-04-30T00:03:50;102110.69;;;9.68;73.98
78016;BME280;67223;51.102;5.882;2023-04-30T00:06:16;102106.06;;;9.56;74.01
78016;BME280;67223;51.102;5.882;2023-04-30T00:08:41;102112.34;;;9.55;74.40
78016;BME280;67223;51.102;5.882;2023-04-30T00:11:06;102103.28;;;9.57;74.54
78016;BME280;67223;51.102;5.882;2023-04-30T00:13:32;102112.88;;;9.45;74.46
78016;BME280;67223;51.102;5.882;2023-04-30T00:15:57;102112.88;;;9.45;74.36
78016;BME280;67223;51.102;5.882;2023-04-30T00:18:23;102115.69;;;9.42;74.56
78016;BME280;67223;51.102;5.882;2023-04-30T00:20:48;102107.53;;;9.30;75.13
78016;BME280;67223;51.102;5.882;2023-04-30T00:23:16;102108.13;;;9.35;75.04
78016;BME280;67223;51.102;5.882;2023-04-30T00:25:41;102114.72;;;9.28;75.11
78016;BME280;67223;51.102;5.882;2023-04-30T00:28:06;102115.06;;;9.37;75.16
78016;BME280;67223;51.102;5.882;2023-04-30T00:30:32;102110.94;;;9.32;74.90
78016;BME280;67223;51.102;5.882;2023-04-30T00:32:57;102111.31;;;9.26;74.58
78016;BME280;67223;51.102;5.882;2023-04-30T00:35:23;102113.44;;;9.19;75.03
78016;BME280;67223;51.102;5.882;2023-04-30T00:37:48;102118.00;;;9.17;75.53
78016;BME280;67223;51.102;5.882;2023-04-30T00:40:13;102115.56;;;9.13;75.29
78016;BME280;67223;51.102;5.882;2023-04-30T00:42:39;102118.50;;;9.08;74.96
78016;BME280;67223;51.102;5.882;2023-04-30T00:45:05;102118.69;;;9.05;76.04
78016;BME280;67223;51.102;5.882;2023-04-30T00:47:30;102117.88;;;9.03;75.46
78016;BME280;67223;51.102;5.882;2023-04-30T00:49:56;102118.22;;;8.97;75.68
78016;BME280;67223;51.102;5.882;2023-04-30T00:52:22;102115.91;;;8.91;75.80
78016;BME280;67223;51.102;5.882;2023-04-30T00:54:48;102124.38;;;8.82;76.42
78016;BME280;67223;51.102;5.882;2023-04-30T00:57:14;102118.56;;;8.91;76.37
78016;BME280;67223;51.102;5.882;2023-04-30T00:59:40;102119.03;;;8.82;76.46
78016;BME280;67223;51.102;5.882;2023-04-30T01:02:06;102120.16;;;8.78;76.68
78016;BME280;67223;51.102;5.882;2023-04-30T01:04:32;102115.94;;;8.74;76.93
78016;BME280;67223;51.102;5.882;2023-04-30T01:06:58;102114.78;;;8.62;76.80
78016;BME280;67223;51.102;5.882;2023-04-30T01:09:27;102112.22;;;8.60;76.87
78016;BME280;67223;51.102;5.882;2023-04-30T01:12:09;102111.09;;;8.64;77.04
78016;BME280;67223;51.102;5.882;2023-04-30T01:15:02;102114.69;;;8.63;77.46
78016;BME280;67223;51.102;5.882;2023-04-30T01:17:33;102115.44;;;8.50;77.34
78016;BME280;67223;51.102;5.882;2023-04-30T01:20:03;102101.88;;;8.54;77.72
78016;BME280;67223;51.102;5.882;2023-04-30T01:22:35;102107.75;;;8.44;77.68
78016;BME280;67223;51.102;5.882;2023-04-30T01:28:07;102101.13;;;8.35;77.92
78016;BME280;67223;51.102;5.882;2023-04-30T01:30:34;102109.13;;;8.35;78.60
78016;BME280;67223;51.102;5.882;2023-04-30T01:33:00;102103.16;;;8.30;78.22
78016;BME280;67223;51.102;5.882;2023-04-30T01:44:11;102107.69;;;8.11;79.38
78016;BME280;67223;51.102;5.882;2023-04-30T01:46:45;102103.50;;;8.22;79.24
78016;BME280;67223;51.102;5.882;2023-04-30T01:52:22;102095.69;;;8.19;78.96
78016;BME280;67223;51.102;5.882;2023-04-30T01:55:04;102108.84;;;8.05;79.53
78016;BME280;67223;51.102;5.882;2023-04-30T01:57:36;102103.91;;;8.15;79.76
78016;BME280;67223;51.102;5.882;2023-04-30T02:00:03;102107.81;;;8.08;79.51
78016;BME280;67223;51.102;5.882;2023-04-30T02:02:29;102100.06;;;8.03;79.57
78016;BME280;67223;51.102;5.882;2023-04-30T02:04:54;102105.84;;;7.94;80.04
78016;BME280;67223;51.102;5.882;2023-04-30T02:07:35;102112.63;;;7.83;80.39
78016;BME280;67223;51.102;5.882;2023-04-30T02:10:02;102115.34;;;8.00;80.05
78016;BME280;67223;51.102;5.882;2023-04-30T02:12:28;102108.53;;;7.94;80.16
78016;BME280;67223;51.102;5.882;2023-04-30T02:14:54;102117.25;;;7.79;80.21
78016;BME280;67223;51.102;5.882;2023-04-30T02:17:20;102118.34;;;7.92;80.33
78016;BME280;67223;51.102;5.882;2023-04-30T02:19:45;102128.31;;;7.89;80.49
78016;BME280;67223;51.102;5.882;2023-04-30T02:22:10;102129.22;;;7.70;80.56
78016;BME280;67223;51.102;5.882;2023-04-30T02:24:36;102127.31;;;7.72;80.55
78016;BME280;67223;51.102;5.882;2023-04-30T02:27:01;102126.50;;;7.72;80.84
78016;BME280;67223;51.102;5.882;2023-04-30T02:29:27;102126.91;;;7.82;80.39
78016;BME280;67223;51.102;5.882;2023-04-30T02:31:52;102127.03;;;7.78;80.83
78016;BME280;67223;51.102;5.882;2023-04-30T02:34:18;102122.41;;;7.65;80.77
78016;BME280;67223;51.102;5.882;2023-04-30T02:36:43;102119.31;;;7.55;81.02
78016;BME280;67223;51.102;5.882;2023-04-30T02:39:08;102114.59;;;7.62;81.09
78016;BME280;67223;51.102;5.882;2023-04-30T02:41:34;102117.16;;;7.63;81.29
78016;BME280;67223;51.102;5.882;2023-04-30T02:44:00;102108.72;;;7.37;81.57
78016;BME280;67223;51.102;5.882;2023-04-30T02:46:25;102105.22;;;7.53;81.62
78016;BME280;67223;51.102;5.882;2023-04-30T02:48:51;102115.47;;;7.25;82.19
78016;BME280;67223;51.102;5.882;2023-04-30T02:51:16;102112.94;;;7.03;82.18
78016;BME280;67223;51.102;5.882;2023-04-30T02:53:42;102108.63;;;6.82;82.65
78016;BME280;67223;51.102;5.882;2023-04-30T02:56:07;102105.41;;;7.13;82.48
78016;BME280;67223;51.102;5.882;2023-04-30T02:58:32;102108.09;;;7.31;82.37
78016;BME280;67223;51.102;5.882;2023-04-30T03:03:33;102109.44;;;7.21;82.33
78016;BME280;67223;51.102;5.882;2023-04-30T03:05:59;102108.81;;;7.16;82.42
78016;BME280;67223;51.102;5.882;2023-04-30T03:08:25;102107.44;;;7.26;82.70
78016;BME280;67223;51.102;5.882;2023-04-30T03:10:50;102100.34;;;7.27;82.28
78016;BME280;67223;51.102;5.882;2023-04-30T03:13:16;102099.09;;;7.15;82.41
78016;BME280;67223;51.102;5.882;2023-04-30T03:15:42;102094.84;;;6.92;83.23
78016;BME280;67223;51.102;5.882;2023-04-30T03:18:09;102097.38;;;6.77;83.33
78016;BME280;67223;51.102;5.882;2023-04-30T03:20:34;102102.22;;;6.67;83.45
78016;BME280;67223;51.102;5.882;2023-04-30T03:23:00;102096.31;;;6.61;83.83
78016;BME280;67223;51.102;5.882;2023-04-30T03:25:25;102090.75;;;6.67;83.85
78016;BME280;67223;51.102;5.882;2023-04-30T03:27:51;102094.44;;;6.63;84.39
78016;BME280;67223;51.102;5.882;2023-04-30T03:30:16;102096.91;;;6.67;83.89
78016;BME280;67223;51.102;5.882;2023-04-30T03:32:42;102102.34;;;6.64;84.14
78016;BME280;67223;51.102;5.882;2023-04-30T03:35:07;102100.78;;;6.79;83.82
78016;BME280;67223;51.102;5.882;2023-04-30T03:37:33;102102.72;;;6.75;83.86
78016;BME280;67223;51.102;5.882;2023-04-30T03:39:58;102098.84;;;6.82;83.79
78016;BME280;67223;51.102;5.882;2023-04-30T03:42:24;102097.81;;;6.86;84.10
78016;BME280;67223;51.102;5.882;2023-04-30T03:44:49;102099.81;;;6.81;83.90
78016;BME280;67223;51.102;5.882;2023-04-30T03:47:15;102110.34;;;6.83;83.73
78016;BME280;67223;51.102;5.882;2023-04-30T03:49:40;102115.03;;;6.97;83.65
78016;BME280;67223;51.102;5.882;2023-04-30T03:52:06;102107.41;;;6.89;83.48
78016;BME280;67223;51.102;5.882;2023-04-30T03:54:31;102114.44;;;6.90;83.54
78016;BME280;67223;51.102;5.882;2023-04-30T03:56:58;102123.56;;;6.84;83.64
78016;BME280;67223;51.102;5.882;2023-04-30T03:59:24;102117.56;;;6.61;83.82
78016;BME280;67223;51.102;5.882;2023-04-30T04:01:50;102117.81;;;6.55;84.18
78016;BME280;67223;51.102;5.882;2023-04-30T04:04:16;102116.25;;;6.51;84.25
78016;BME280;67223;51.102;5.882;2023-04-30T04:06:41;102131.44;;;6.47;84.38
78016;BME280;67223;51.102;5.882;2023-04-30T04:09:07;102127.72;;;6.51;84.55
78016;BME280;67223;51.102;5.882;2023-04-30T04:11:33;102123.38;;;6.69;84.12
78016;BME280;67223;51.102;5.882;2023-04-30T04:13:59;102127.34;;;6.79;83.84
78016;BME280;67223;51.102;5.882;2023-04-30T04:16:25;102136.06;;;6.62;84.35
78016;BME280;67223;51.102;5.882;2023-04-30T04:18:51;102129.28;;;6.75;83.90
78016;BME280;67223;51.102;5.882;2023-04-30T04:21:17;102132.00;;;6.74;83.79
78016;BME280;67223;51.102;5.882;2023-04-30T04:23:43;102131.06;;;6.75;83.87
78016;BME280;67223;51.102;5.882;2023-04-30T04:26:08;102135.78;;;6.68;83.84
78016;BME280;67223;51.102;5.882;2023-04-30T04:28:35;102133.34;;;6.64;84.17
78016;BME280;67223;51.102;5.882;2023-04-30T04:31:01;102136.47;;;6.53;84.24
78016;BME280;67223;51.102;5.882;2023-04-30T04:33:27;102136.25;;;6.58;84.24
78016;BME280;67223;51.102;5.882;2023-04-30T04:35:53;102137.97;;;6.59;84.30
78016;BME280;67223;51.102;5.882;2023-04-30T04:38:18;102131.03;;;6.56;84.42
78016;BME280;67223;51.102;5.882;2023-04-30T04:40:53;102136.66;;;6.48;84.66
78016;BME280;67223;51.102;5.882;2023-04-30T04:43:19;102126.25;;;6.44;84.86
78016;BME280;67223;51.102;5.882;2023-04-30T04:45:45;102132.56;;;6.41;85.22
78016;BME280;67223;51.102;5.882;2023-04-30T04:48:11;102135.94;;;6.45;85.13
78016;BME280;67223;51.102;5.882;2023-04-30T04:50:36;102132.88;;;6.74;84.68
78016;BME280;67223;51.102;5.882;2023-04-30T04:53:02;102143.09;;;6.63;84.88
78016;BME280;67223;51.102;5.882;2023-04-30T04:55:27;102140.72;;;6.77;84.59
78016;BME280;67223;51.102;5.882;2023-04-30T04:57:53;102142.56;;;6.75;84.74
78016;BME280;67223;51.102;5.882;2023-04-30T05:00:18;102145.28;;;6.74;84.84
78016;BME280;67223;51.102;5.882;2023-04-30T05:02:46;102141.94;;;6.89;84.72
78016;BME280;67223;51.102;5.882;2023-04-30T05:05:11;102139.09;;;6.73;85.00
78016;BME280;67223;51.102;5.882;2023-04-30T05:07:37;102142.81;;;6.69;85.20
78016;BME280;67223;51.102;5.882;2023-04-30T05:10:03;102144.41;;;6.73;85.22
78016;BME280;67223;51.102;5.882;2023-04-30T05:12:28;102148.69;;;6.77;85.57
78016;BME280;67223;51.102;5.882;2023-04-30T05:14:54;102145.88;;;6.80;85.44
78016;BME280;67223;51.102;5.882;2023-04-30T05:17:19;102148.94;;;6.71;85.66
78016;BME280;67223;51.102;5.882;2023-04-30T05:19:45;102156.31;;;6.65;85.82
78016;BME280;67223;51.102;5.882;2023-04-30T05:22:12;102152.53;;;6.89;85.58
78016;BME280;67223;51.102;5.882;2023-04-30T05:24:37;102153.25;;;6.92;85.57
78016;BME280;67223;51.102;5.882;2023-04-30T05:27:02;102148.59;;;6.98;85.70
78016;BME280;67223;51.102;5.882;2023-04-30T05:29:29;102147.91;;;7.13;85.79
78016;BME280;67223;51.102;5.882;2023-04-30T05:31:55;102142.31;;;7.19;85.46
78016;BME280;67223;51.102;5.882;2023-04-30T05:34:23;102154.88;;;7.34;85.66
78016;BME280;67223;51.102;5.882;2023-04-30T05:36:49;102154.38;;;7.63;84.99
78016;BME280;67223;51.102;5.882;2023-04-30T05:39:15;102154.91;;;7.89;84.27
78016;BME280;67223;51.102;5.882;2023-04-30T05:41:40;102159.63;;;8.18;84.10
78016;BME280;67223;51.102;5.882;2023-04-30T05:44:08;102160.44;;;8.20;83.04
78016;BME280;67223;51.102;5.882;2023-04-30T05:46:34;102160.75;;;8.48;82.78
78016;BME280;67223;51.102;5.882;2023-04-30T05:49:00;102166.72;;;8.71;82.32
78016;BME280;67223;51.102;5.882;2023-04-30T05:51:26;102164.09;;;8.86;81.20
78016;BME280;67223;51.102;5.882;2023-04-30T05:53:52;102163.47;;;9.14;80.30
78016;BME280;67223;51.102;5.882;2023-04-30T05:56:18;102159.03;;;8.97;79.79
78016;BME280;67223;51.102;5.882;2023-04-30T05:58:43;102159.47;;;9.38;78.46
78016;BME280;67223;51.102;5.882;2023-04-30T06:01:09;102161.28;;;9.54;78.28
78016;BME280;67223;51.102;5.882;2023-04-30T06:03:35;102157.13;;;9.48;77.57
78016;BME280;67223;51.102;5.882;2023-04-30T06:06:02;102155.34;;;9.80;76.21
78016;BME280;67223;51.102;5.882;2023-04-30T06:08:28;102156.66;;;10.03;75.57
78016;BME280;67223;51.102;5.882;2023-04-30T06:10:54;102156.66;;;10.18;74.53
78016;BME280;67223;51.102;5.882;2023-04-30T06:13:19;102152.50;;;10.28;74.42
78016;BME280;67223;51.102;5.882;2023-04-30T06:15:45;102155.41;;;10.40;74.15
78016;BME280;67223;51.102;5.882;2023-04-30T06:18:11;102161.56;;;10.26;73.67
78016;BME280;67223;51.102;5.882;2023-04-30T06:20:38;102157.19;;;10.83;73.03
78016;BME280;67223;51.102;5.882;2023-04-30T06:23:04;102163.13;;;10.88;71.91
78016;BME280;67223;51.102;5.882;2023-04-30T06:25:29;102164.72;;;10.76;71.24
78016;BME280;67223;51.102;5.882;2023-04-30T06:27:55;102160.84;;;11.25;70.66
78016;BME280;67223;51.102;5.882;2023-04-30T06:30:20;102160.63;;;11.28;69.55
78016;BME280;67223;51.102;5.882;2023-04-30T06:32:46;102161.66;;;11.53;69.13
78016;BME280;67223;51.102;5.882;2023-04-30T06:35:11;102164.34;;;11.39;69.31
78016;BME280;67223;51.102;5.882;2023-04-30T06:37:36;102167.28;;;11.49;68.21
78016;BME280;67223;51.102;5.882;2023-04-30T06:40:05;102169.13;;;10.77;69.10
78016;BME280;67223;51.102;5.882;2023-04-30T06:42:31;102170.56;;;11.40;68.59
78016;BME280;67223;51.102;5.882;2023-04-30T06:45:02;102172.72;;;12.02;67.31
78016;BME280;67223;51.102;5.882;2023-04-30T06:47:29;102176.56;;;12.38;65.65
78016;BME280;67223;51.102;5.882;2023-04-30T06:50:03;102166.72;;;12.51;64.82
78016;BME280;67223;51.102;5.882;2023-04-30T06:52:29;102160.53;;;12.63;65.10
78016;BME280;67223;51.102;5.882;2023-04-30T06:54:54;102165.69;;;12.66;64.71
78016;BME280;67223;51.102;5.882;2023-04-30T06:57:20;102163.56;;;12.97;64.79
78016;BME280;67223;51.102;5.882;2023-04-30T06:59:46;102167.75;;;12.88;63.57
78016;BME280;67223;51.102;5.882;2023-04-30T07:02:11;102161.84;;;13.33;64.47
78016;BME280;67223;51.102;5.882;2023-04-30T07:04:37;102157.88;;;13.26;63.67
78016;BME280;67223;51.102;5.882;2023-04-30T07:07:02;102160.13;;;13.32;62.80
78016;BME280;67223;51.102;5.882;2023-04-30T07:09:29;102157.78;;;13.64;62.20
78016;BME280;67223;51.102;5.882;2023-04-30T07:11:55;102159.69;;;13.26;61.91
78016;BME280;67223;51.102;5.882;2023-04-30T07:14:21;102158.75;;;13.63;60.95
78016;BME280;67223;51.102;5.882;2023-04-30T07:16:49;102160.41;;;14.01;60.26
78016;BME280;67223;51.102;5.882;2023-04-30T07:19:15;102158.06;;;12.85;61.96
78016;BME280;67223;51.102;5.882;2023-04-30T07:21:41;102155.41;;;12.98;63.88
78016;BME280;67223;51.102;5.882;2023-04-30T07:24:06;102151.91;;;14.07;61.87
78016;BME280;67223;51.102;5.882;2023-04-30T07:26:32;102155.53;;;14.30;59.83
78016;BME280;67223;51.102;5.882;2023-04-30T07:28:58;102157.75;;;14.25;59.96
78016;BME280;67223;51.102;5.882;2023-04-30T07:31:23;102152.47;;;13.75;60.39
78016;BME280;67223;51.102;5.882;2023-04-30T07:33:50;102153.94;;;13.56;61.18
78016;BME280;67223;51.102;5.882;2023-04-30T07:36:16;102149.63;;;14.83;60.72
78016;BME280;67223;51.102;5.882;2023-04-30T07:38:42;102149.88;;;15.58;58.83
78016;BME280;67223;51.102;5.882;2023-04-30T07:41:07;102149.63;;;15.05;58.00
78016;BME280;67223;51.102;5.882;2023-04-30T07:43:34;102143.34;;;14.72;59.31
78016;BME280;67223;51.102;5.882;2023-04-30T07:46:00;102147.22;;;14.56;57.97
78016;BME280;67223;51.102;5.882;2023-04-30T07:48:26;102140.09;;;15.13;57.17
78016;BME280;67223;51.102;5.882;2023-04-30T07:50:51;102146.94;;;15.17;57.27
78016;BME280;67223;51.102;5.882;2023-04-30T07:53:17;102150.97;;;15.56;55.92
78016;BME280;67223;51.102;5.882;2023-04-30T07:55:45;102154.06;;;14.49;58.30
78016;BME280;67223;51.102;5.882;2023-04-30T07:58:11;102146.19;;;16.02;54.95
78016;BME280;67223;51.102;5.882;2023-04-30T08:00:37;102146.13;;;16.45;53.15
78016;BME280;67223;51.102;5.882;2023-04-30T08:03:02;102143.84;;;16.09;53.21
78016;BME280;67223;51.102;5.882;2023-04-30T08:05:28;102146.41;;;16.84;52.57
78016;BME280;67223;51.102;5.882;2023-04-30T08:07:53;102140.13;;;16.73;53.38
78016;BME280;67223;51.102;5.882;2023-04-30T08:10:19;102151.22;;;16.80;53.30
78016;BME280;67223;51.102;5.882;2023-04-30T08:12:44;102144.25;;;16.25;54.82
78016;BME280;67223;51.102;5.882;2023-04-30T08:15:10;102148.00;;;17.56;52.86
78016;BME280;67223;51.102;5.882;2023-04-30T08:17:36;102149.34;;;17.81;50.61
78016;BME280;67223;51.102;5.882;2023-04-30T08:20:03;102155.81;;;18.38;47.73
78016;BME280;67223;51.102;5.882;2023-04-30T08:22:29;102158.22;;;18.41;48.19
78016;BME280;67223;51.102;5.882;2023-04-30T08:24:54;102153.63;;;18.70;46.89
78016;BME280;67223;51.102;5.882;2023-04-30T08:27:20;102153.56;;;19.91;44.11
78016;BME280;67223;51.102;5.882;2023-04-30T08:29:46;102154.94;;;18.57;46.57
78016;BME280;67223;51.102;5.882;2023-04-30T08:32:12;102145.66;;;17.82;46.56
78016;BME280;67223;51.102;5.882;2023-04-30T08:34:38;102147.28;;;18.99;44.50
78016;BME280;67223;51.102;5.882;2023-04-30T08:37:07;102153.63;;;19.81;43.07
78016;BME280;67223;51.102;5.882;2023-04-30T08:39:33;102155.41;;;19.35;42.99
78016;BME280;67223;51.102;5.882;2023-04-30T08:42:01;102145.81;;;18.67;43.72
78016;BME280;67223;51.102;5.882;2023-04-30T08:44:28;102143.06;;;19.60;41.58
78016;BME280;67223;51.102;5.882;2023-04-30T08:46:55;102147.38;;;19.44;41.29
78016;BME280;67223;51.102;5.882;2023-04-30T08:49:22;102139.41;;;19.97;39.82
78016;BME280;67223;51.102;5.882;2023-04-30T08:51:49;102145.59;;;18.98;42.68
78016;BME280;67223;51.102;5.882;2023-04-30T08:54:16;102145.94;;;17.89;44.30
78016;BME280;67223;51.102;5.882;2023-04-30T08:56:44;102153.94;;;18.10;44.59
78016;BME280;67223;51.102;5.882;2023-04-30T08:59:11;102148.53;;;18.00;44.09
78016;BME280;67223;51.102;5.882;2023-04-30T09:01:37;102143.84;;;19.06;42.32
78016;BME280;67223;51.102;5.882;2023-04-30T09:04:03;102138.38;;;19.98;39.76
78016;BME280;67223;51.102;5.882;2023-04-30T09:06:29;102132.97;;;20.15;40.00
78016;BME280;67223;51.102;5.882;2023-04-30T09:08:55;102132.66;;;20.36;37.90
78016;BME280;67223;51.102;5.882;2023-04-30T09:11:24;102134.13;;;21.00;37.41
78016;BME280;67223;51.102;5.882;2023-04-30T09:13:51;102127.84;;;20.74;37.58
78016;BME280;67223;51.102;5.882;2023-04-30T09:16:18;102135.09;;;20.91;36.02
78016;BME280;67223;51.102;5.882;2023-04-30T09:18:44;102129.44;;;20.58;38.29
78016;BME280;67223;51.102;5.882;2023-04-30T09:21:10;102129.19;;;20.70;36.51
78016;BME280;67223;51.102;5.882;2023-04-30T09:23:36;102133.00;;;21.11;36.75
78016;BME280;67223;51.102;5.882;2023-04-30T09:26:02;102124.59;;;20.70;35.93
78016;BME280;67223;51.102;5.882;2023-04-30T09:28:27;102124.22;;;20.65;37.24
78016;BME280;67223;51.102;5.882;2023-04-30T09:30:56;102135.03;;;21.42;35.42
78016;BME280;67223;51.102;5.882;2023-04-30T09:33:21;102118.47;;;21.20;35.76
78016;BME280;67223;51.102;5.882;2023-04-30T09:35:47;102123.00;;;22.19;34.43
78016;BME280;67223;51.102;5.882;2023-04-30T09:38:30;102118.91;;;22.07;34.02
78016;BME280;67223;51.102;5.882;2023-04-30T09:40:58;102117.22;;;22.30;32.97
78016;BME280;67223;51.102;5.882;2023-04-30T09:43:24;102124.13;;;21.84;32.98
78016;BME280;67223;51.102;5.882;2023-04-30T09:45:51;102120.28;;;22.11;34.89
78016;BME280;67223;51.102;5.882;2023-04-30T09:48:26;102123.41;;;21.74;35.98
78016;BME280;67223;51.102;5.882;2023-04-30T09:50:55;102121.25;;;22.67;32.02
78016;BME280;67223;51.102;5.882;2023-04-30T09:53:21;102116.16;;;22.88;30.62
78016;BME280;67223;51.102;5.882;2023-04-30T09:55:49;102120.56;;;23.05;30.99
78016;BME280;67223;51.102;5.882;2023-04-30T09:58:17;102116.00;;;23.45;30.60
78016;BME280;67223;51.102;5.882;2023-04-30T10:00:44;102116.97;;;23.05;31.09
78016;BME280;67223;51.102;5.882;2023-04-30T10:03:17;102106.47;;;22.53;29.54
78016;BME280;67223;51.102;5.882;2023-04-30T10:05:47;102111.19;;;21.78;30.55
78016;BME280;67223;51.102;5.882;2023-04-30T10:08:57;102098.16;;;21.98;30.78
78016;BME280;67223;51.102;5.882;2023-04-30T10:11:27;102104.03;;;21.77;31.89
78016;BME280;67223;51.102;5.882;2023-04-30T10:16:57;102100.91;;;22.14;30.68
78016;BME280;67223;51.102;5.882;2023-04-30T10:19:29;102088.28;;;22.54;29.90
78016;BME280;67223;51.102;5.882;2023-04-30T10:21:56;102094.22;;;22.57;30.85
78016;BME280;67223;51.102;5.882;2023-04-30T10:24:22;102093.31;;;21.60;32.84
78016;BME280;67223;51.102;5.882;2023-04-30T10:26:48;102091.88;;;22.46;34.31
78016;BME280;67223;51.102;5.882;2023-04-30T10:29:16;102095.06;;;22.58;30.30
78016;BME280;67223;51.102;5.882;2023-04-30T10:31:49;102083.38;;;23.82;29.93
78016;BME280;67223;51.102;5.882;2023-04-30T10:37:23;102083.75;;;23.79;29.18
78016;BME280;67223;51.102;5.882;2023-04-30T10:39:53;102078.53;;;24.15;28.54
78016;BME280;67223;51.102;5.882;2023-04-30T10:42:20;102075.81;;;23.31;29.44
78016;BME280;67223;51.102;5.882;2023-04-30T10:44:45;102071.97;;;21.97;31.75
78016;BME280;67223;51.102;5.882;2023-04-30T10:47:11;102079.25;;;23.16;30.48
78016;BME280;67223;51.102;5.882;2023-04-30T10:49:36;102070.38;;;23.31;30.54
78016;BME280;67223;51.102;5.882;2023-04-30T10:52:03;102070.09;;;24.25;29.59
78016;BME280;67223;51.102;5.882;2023-04-30T10:54:33;102060.66;;;24.79;27.20
78016;BME280;67223;51.102;5.882;2023-04-30T10:57:16;102054.69;;;24.09;28.91
78016;BME280;67223;51.102;5.882;2023-04-30T10:59:53;102050.31;;;25.19;27.47
78016;BME280;67223;51.102;5.882;2023-04-30T11:02:18;102054.81;;;24.53;28.47
78016;BME280;67223;51.102;5.882;2023-04-30T11:07:32;102046.97;;;25.38;27.05
78016;BME280;67223;51.102;5.882;2023-04-30T11:09:59;102038.66;;;25.32;26.27
78016;BME280;67223;51.102;5.882;2023-04-30T11:12:26;102031.81;;;25.06;26.82
78016;BME280;67223;51.102;5.882;2023-04-30T11:15:18;102040.72;;;24.27;28.22
78016;BME280;67223;51.102;5.882;2023-04-30T11:17:45;102037.38;;;22.79;30.78
78016;BME280;67223;51.102;5.882;2023-04-30T11:20:13;102030.34;;;23.23;30.02
78016;BME280;67223;51.102;5.882;2023-04-30T11:22:43;102031.44;;;22.75;30.40
78016;BME280;67223;51.102;5.882;2023-04-30T11:25:10;102032.38;;;23.83;29.22
78016;BME280;67223;51.102;5.882;2023-04-30T11:27:41;102027.66;;;23.77;28.41
78016;BME280;67223;51.102;5.882;2023-04-30T11:30:12;102031.41;;;23.98;28.70
78016;BME280;67223;51.102;5.882;2023-04-30T11:32:39;102032.06;;;23.24;29.49
78016;BME280;67223;51.102;5.882;2023-04-30T11:35:06;102026.97;;;23.52;30.27
78016;BME280;67223;51.102;5.882;2023-04-30T11:37:36;102022.31;;;23.30;29.76
78016;BME280;67223;51.102;5.882;2023-04-30T11:40:06;102019.41;;;23.62;28.82
78016;BME280;67223;51.102;5.882;2023-04-30T11:42:33;102021.59;;;23.89;29.25
78016;BME280;67223;51.102;5.882;2023-04-30T11:45:17;102010.69;;;23.89;30.17
78016;BME280;67223;51.102;5.882;2023-04-30T11:47:46;102006.03;;;23.44;29.30
78016;BME280;67223;51.102;5.882;2023-04-30T11:50:14;102004.81;;;23.24;31.69
78016;BME280;67223;51.102;5.882;2023-04-30T11:52:41;101999.31;;;22.46;30.72
78016;BME280;67223;51.102;5.882;2023-04-30T11:55:12;101993.09;;;21.97;31.28
78016;BME280;67223;51.102;5.882;2023-04-30T11:57:40;101995.31;;;22.81;31.97
78016;BME280;67223;51.102;5.882;2023-04-30T12:00:16;101989.56;;;22.60;32.42
78016;BME280;67223;51.102;5.882;2023-04-30T12:02:43;101987.16;;;22.73;31.05
78016;BME280;67223;51.102;5.882;2023-04-30T12:05:19;101989.41;;;22.53;30.60
78016;BME280;67223;51.102;5.882;2023-04-30T12:08:04;101997.81;;;22.36;30.55
78016;BME280;67223;51.102;5.882;2023-04-30T12:10:34;101984.19;;;22.27;31.84
78016;BME280;67223;51.102;5.882;2023-04-30T12:13:02;101978.25;;;21.43;31.97
78016;BME280;67223;51.102;5.882;2023-04-30T12:15:28;101986.78;;;21.80;32.61
78016;BME280;67223;51.102;5.882;2023-04-30T12:17:57;101969.53;;;21.15;32.58
78016;BME280;67223;51.102;5.882;2023-04-30T12:20:29;101977.44;;;21.91;32.83
78016;BME280;67223;51.102;5.882;2023-04-30T12:22:56;101966.56;;;21.51;32.95
78016;BME280;67223;51.102;5.882;2023-04-30T12:25:22;101968.19;;;21.27;32.49
78016;BME280;67223;51.102;5.882;2023-04-30T12:27:50;101965.16;;;21.87;31.63
78016;BME280;67223;51.102;5.882;2023-04-30T12:32:45;101976.22;;;20.87;34.17
78016;BME280;67223;51.102;5.882;2023-04-30T12:35:19;101965.53;;;21.52;33.84
78016;BME280;67223;51.102;5.882;2023-04-30T12:37:47;101957.38;;;21.76;33.40
78016;BME280;67223;51.102;5.882;2023-04-30T12:40:18;101952.59;;;21.21;34.10
78016;BME280;67223;51.102;5.882;2023-04-30T12:42:44;101955.13;;;21.23;34.37
78016;BME280;67223;51.102;5.882;2023-04-30T12:45:11;101952.75;;;21.28;35.05
78016;BME280;67223;51.102;5.882;2023-04-30T12:47:41;101952.09;;;20.84;35.74
78016;BME280;67223;51.102;5.882;2023-04-30T12:50:10;101959.91;;;20.45;34.55
78016;BME280;67223;51.102;5.882;2023-04-30T12:52:39;101948.47;;;20.33;35.67
78016;BME280;67223;51.102;5.882;2023-04-30T12:55:18;101948.25;;;21.02;35.91
78016;BME280;67223;51.102;5.882;2023-04-30T12:58:05;101945.63;;;20.43;35.65
78016;BME280;67223;51.102;5.882;2023-04-30T13:00:45;101939.53;;;20.83;36.78
78016;BME280;67223;51.102;5.882;2023-04-30T13:03:11;101937.63;;;20.67;37.39
78016;BME280;67223;51.102;5.882;2023-04-30T13:05:37;101933.84;;;20.52;37.92
78016;BME280;67223;51.102;5.882;2023-04-30T13:08:03;101932.31;;;20.57;37.12
78016;BME280;67223;51.102;5.882;2023-04-30T13:10:33;101934.81;;;20.17;36.74
78016;BME280;67223;51.102;5.882;2023-04-30T13:12:59;101933.22;;;20.32;38.23
78016;BME280;67223;51.102;5.882;2023-04-30T13:15:24;101925.13;;;19.89;37.62
78016;BME280;67223;51.102;5.882;2023-04-30T13:17:51;101922.91;;;20.18;37.27
78016;BME280;67223;51.102;5.882;2023-04-30T13:20:17;101923.00;;;20.60;37.48
78016;BME280;67223;51.102;5.882;2023-04-30T13:22:43;101917.72;;;19.99;36.72
78016;BME280;67223;51.102;5.882;2023-04-30T13:25:08;101919.06;;;20.46;38.15